createdAt,value
2022-10-21T00:02:03.526Z,101005.84
2022-10-21T00:04:34.315Z,100999.69
2022-10-21T00:07:00.770Z,101004.63
2022-10-21T00:09:27.219Z,100993.97
2022-10-21T00:11:53.723Z,100993.03
2022-10-21T00:14:20.191Z,100998.63
2022-10-21T00:16:46.672Z,100997.91
2022-10-21T00:19:13.136Z,100988.81
2022-10-21T00:21:40.934Z,100986.53
2022-10-21T00:24:07.489Z,100983.41
2022-10-21T00:26:37.615Z,100975.38
2022-10-21T00:29:05.099Z,100976.00
2022-10-21T00:31:31.729Z,100971.69
2022-10-21T00:33:58.176Z,100978.13
2022-10-21T00:36:24.642Z,100966.84
2022-10-21T00:38:51.201Z,100961.72
2022-10-21T00:41:19.048Z,100962.16
2022-10-21T00:44:07.992Z,100963.63
2022-10-21T00:46:57.540Z,100956.22
2022-10-21T00:49:44.057Z,100960.78
2022-10-21T00:52:17.091Z,100957.47
2022-10-21T00:54:44.249Z,100969.50
2022-10-21T00:57:11.161Z,100956.38
2022-10-21T00:59:41.937Z,100957.38
2022-10-21T01:02:08.593Z,100953.56
2022-10-21T01:04:35.056Z,100945.59
2022-10-21T01:07:02.470Z,100942.56
2022-10-21T01:09:29.447Z,100935.53
2022-10-21T01:11:56.575Z,100940.19
2022-10-21T01:14:56.276Z,100933.50
2022-10-21T01:17:54.118Z,100924.91
2022-10-21T01:20:35.933Z,100934.16
2022-10-21T01:23:38.692Z,100933.03
2022-10-21T01:26:26.041Z,100933.88
2022-10-21T01:29:10.997Z,100927.09
2022-10-21T01:31:50.569Z,100925.63
2022-10-21T01:34:41.177Z,100934.22
2022-10-21T01:37:14.695Z,100927.63
2022-10-21T01:39:55.427Z,100933.22
2022-10-21T01:42:31.326Z,100915.72
2022-10-21T01:45:03.452Z,100921.22
2022-10-21T01:47:42.210Z,100909.84
2022-10-21T01:50:22.682Z,100905.75
2022-10-21T01:52:50.331Z,100909.75
2022-10-21T01:55:20.565Z,100910.41
2022-10-21T01:57:51.670Z,100914.34
2022-10-21T02:00:18.602Z,100908.69
2022-10-21T02:02:48.171Z,100908.78
2022-10-21T02:05:19.543Z,100901.63
2022-10-21T02:07:45.987Z,100895.09
2022-10-21T02:10:12.579Z,100889.25
2022-10-21T02:12:40.719Z,100885.97
2022-10-21T02:15:09.120Z,100886.34
2022-10-21T02:17:36.936Z,100896.22
2022-10-21T02:20:06.691Z,100899.41
2022-10-21T02:22:34.091Z,100891.44
2022-10-21T02:25:23.231Z,100886.94
2022-10-21T02:27:50.290Z,100887.50
2022-10-21T02:30:16.836Z,100880.38
2022-10-21T02:32:52.087Z,100872.59
2022-10-21T02:35:53.302Z,100875.06
2022-10-21T02:38:25.909Z,100873.78
2022-10-21T02:40:56.583Z,100878.38
2022-10-21T02:43:27.388Z,100869.28
2022-10-21T02:45:59.263Z,100871.50
2022-10-21T02:48:25.731Z,100870.22
2022-10-21T02:50:52.197Z,100882.13
2022-10-21T02:53:18.692Z,100875.25
2022-10-21T02:55:45.178Z,100873.78
2022-10-21T02:58:11.690Z,100869.19
2022-10-21T03:00:38.211Z,100867.00
2022-10-21T03:03:04.695Z,100859.31
2022-10-21T03:07:58.550Z,100855.09
2022-10-21T03:10:25.023Z,100849.69
2022-10-21T03:12:51.483Z,100856.28
2022-10-21T03:15:17.947Z,100852.00
2022-10-21T03:17:44.475Z,100850.06
2022-10-21T03:20:10.944Z,100842.28
2022-10-21T03:22:37.439Z,100842.00
2022-10-21T03:25:04.659Z,100852.63
2022-10-21T03:30:06.674Z,100846.59
2022-10-21T03:32:33.456Z,100845.41
2022-10-21T03:34:59.911Z,100850.59
2022-10-21T03:37:26.375Z,100844.31
2022-10-21T03:39:52.874Z,100840.47
2022-10-21T03:42:19.330Z,100842.00
2022-10-21T03:44:45.780Z,100839.06
2022-10-21T03:47:12.260Z,100850.53
2022-10-21T03:49:38.777Z,100850.72
2022-10-21T03:52:05.238Z,100844.38
2022-10-21T03:54:31.794Z,100840.63
2022-10-21T03:56:58.244Z,100837.31
2022-10-21T03:59:24.740Z,100840.72
2022-10-21T04:01:51.339Z,100845.84
2022-10-21T04:04:17.818Z,100842.47
2022-10-21T04:06:44.335Z,100844.19
2022-10-21T04:09:11.046Z,100842.03
2022-10-21T04:11:37.551Z,100847.38
2022-10-21T04:14:04.119Z,100853.63
2022-10-21T04:16:30.611Z,100852.63
2022-10-21T04:18:57.068Z,100849.88
2022-10-21T04:23:54.890Z,100836.13
2022-10-21T04:26:21.698Z,100836.50
2022-10-21T04:28:48.229Z,100828.66
2022-10-21T04:31:14.677Z,100835.22
2022-10-21T04:33:41.148Z,100818.03
2022-10-21T04:36:07.719Z,100812.88
2022-10-21T04:38:34.305Z,100793.22
2022-10-21T04:41:03.023Z,100798.88
2022-10-21T04:43:29.960Z,100802.94
2022-10-21T04:45:56.438Z,100815.00
2022-10-21T04:48:23.041Z,100814.47
2022-10-21T04:50:50.676Z,100815.09
2022-10-21T04:53:17.462Z,100826.34
2022-10-21T04:55:43.980Z,100824.16
2022-10-21T04:58:10.501Z,100813.81
2022-10-21T05:00:37.003Z,100812.25
2022-10-21T05:03:03.646Z,100816.53
2022-10-21T05:05:30.151Z,100813.91
2022-10-21T05:07:56.731Z,100808.59
2022-10-21T05:10:23.876Z,100804.84
2022-10-21T05:12:50.400Z,100797.44
2022-10-21T05:15:17.043Z,100795.97
2022-10-21T05:17:43.507Z,100797.06
2022-10-21T05:20:10.506Z,100790.66
2022-10-21T05:22:37.348Z,100792.00
2022-10-21T05:25:04.497Z,100791.28
2022-10-21T05:27:30.959Z,100790.00
2022-10-21T05:29:58.312Z,100796.50
2022-10-21T05:32:25.133Z,100793.31
2022-10-21T05:34:51.611Z,100793.41
2022-10-21T05:37:18.109Z,100790.28
2022-10-21T05:39:44.763Z,100789.00
2022-10-21T05:42:11.244Z,100794.13
2022-10-21T05:44:37.704Z,100791.19
2022-10-21T05:47:04.571Z,100806.56
2022-10-21T05:49:31.046Z,100814.59
2022-10-21T05:51:57.532Z,100821.56
2022-10-21T05:54:23.984Z,100818.31
2022-10-21T05:56:50.626Z,100810.34
2022-10-21T05:59:17.147Z,100809.94
2022-10-21T06:01:43.811Z,100807.78
2022-10-21T06:04:10.533Z,100804.31
2022-10-21T06:06:37.151Z,100810.25
2022-10-21T06:09:04.015Z,100811.31
2022-10-21T06:11:30.699Z,100808.53
2022-10-21T06:13:57.275Z,100808.94
2022-10-21T06:16:23.728Z,100803.31
2022-10-21T06:18:50.222Z,100800.00
2022-10-21T06:21:16.749Z,100800.34
2022-10-21T06:23:43.236Z,100803.72
2022-10-21T06:26:14.432Z,100807.97
2022-10-21T06:28:42.077Z,100812.19
2022-10-21T06:31:09.608Z,100819.59
2022-10-21T06:33:36.105Z,100824.22
2022-10-21T06:36:02.613Z,100840.03
2022-10-21T06:38:29.141Z,100838.41
2022-10-21T06:41:03.978Z,100838.69
2022-10-21T06:43:30.832Z,100840.91
2022-10-21T06:46:07.818Z,100835.50
2022-10-21T06:48:34.280Z,100843.09
2022-10-21T06:51:12.600Z,100848.78
2022-10-21T06:53:39.556Z,100842.00
2022-10-21T06:56:17.374Z,100836.13
2022-10-21T06:58:47.934Z,100818.72
2022-10-21T07:01:41.034Z,100826.34
2022-10-21T07:04:08.788Z,100826.72
2022-10-21T07:06:35.640Z,100827.09
2022-10-21T07:09:03.173Z,100833.75
2022-10-21T07:11:29.740Z,100840.25
2022-10-21T07:13:56.462Z,100843.75
2022-10-21T07:16:26.169Z,100839.72
2022-10-21T07:18:53.158Z,100834.88
2022-10-21T07:21:21.707Z,100849.91
2022-10-21T07:23:51.067Z,100844.22
2022-10-21T07:26:18.795Z,100853.25
2022-10-21T07:28:47.515Z,100847.81
2022-10-21T07:31:15.412Z,100836.19
2022-10-21T07:33:42.368Z,100821.88
2022-10-21T07:36:15.314Z,100810.59
2022-10-21T07:38:46.473Z,100812.78
2022-10-21T07:41:20.970Z,100824.34
2022-10-21T07:43:48.067Z,100825.09
2022-10-21T07:46:15.028Z,100832.16
2022-10-21T07:48:41.562Z,100830.13
2022-10-21T07:51:10.746Z,100825.22
2022-10-21T07:53:37.761Z,100811.88
2022-10-21T07:56:07.421Z,100815.78
2022-10-21T07:58:34.150Z,100821.22
2022-10-21T08:01:01.587Z,100819.34
2022-10-21T08:03:28.604Z,100821.44
2022-10-21T08:05:55.401Z,100810.59
2022-10-21T08:08:21.871Z,100812.25
2022-10-21T08:13:16.942Z,100820.22
2022-10-21T08:15:44.517Z,100818.25
2022-10-21T08:18:11.234Z,100821.00
2022-10-21T08:20:41.734Z,100824.38
2022-10-21T08:23:08.320Z,100826.25
2022-10-21T08:25:35.533Z,100840.00
2022-10-21T08:28:03.008Z,100843.31
2022-10-21T08:30:32.229Z,100846.84
2022-10-21T08:32:59.366Z,100848.09
2022-10-21T08:35:29.251Z,100842.34
2022-10-21T08:37:55.783Z,100833.88
2022-10-21T08:40:22.496Z,100821.19
2022-10-21T08:42:49.103Z,100816.03
2022-10-21T08:45:44.031Z,100813.28
2022-10-21T08:48:15.263Z,100820.22
2022-10-21T08:50:46.653Z,100818.38
2022-10-21T08:53:35.769Z,100821.72
2022-10-21T08:56:07.398Z,100810.13
2022-10-21T08:58:33.989Z,100814.75
2022-10-21T09:01:23.871Z,100809.84
2022-10-21T09:04:13.331Z,100801.63
2022-10-21T09:06:49.487Z,100812.25
2022-10-21T09:09:48.287Z,100801.16
2022-10-21T09:12:26.839Z,100799.47
2022-10-21T09:15:08.650Z,100792.41
2022-10-21T09:17:49.574Z,100791.34
2022-10-21T09:20:15.970Z,100795.66
2022-10-21T09:23:03.907Z,100793.38
2022-10-21T09:26:01.332Z,100798.41
2022-10-21T09:28:29.162Z,100787.13
2022-10-21T09:30:56.057Z,100794.75
2022-10-21T09:33:29.000Z,100804.22
2022-10-21T09:36:00.154Z,100801.56
2022-10-21T09:38:38.586Z,100795.84
2022-10-21T09:41:05.897Z,100791.28
2022-10-21T09:43:32.371Z,100794.97
2022-10-21T09:45:58.917Z,100800.72
2022-10-21T09:48:33.703Z,100805.84
2022-10-21T09:51:09.575Z,100800.34
2022-10-21T09:53:52.958Z,100798.28
2022-10-21T09:56:22.398Z,100797.41
2022-10-21T09:59:07.715Z,100793.94
2022-10-21T10:01:36.179Z,100805.63
2022-10-21T10:04:30.619Z,100807.06
2022-10-21T10:07:00.350Z,100803.19
2022-10-21T10:09:36.367Z,100803.94
2022-10-21T10:12:16.243Z,100812.56
2022-10-21T10:14:46.352Z,100808.91
2022-10-21T10:17:34.538Z,100804.34
2022-10-21T10:20:04.066Z,100808.84
2022-10-21T10:22:31.486Z,100809.31
2022-10-21T10:25:22.781Z,100800.94
2022-10-21T10:27:56.757Z,100806.72
2022-10-21T10:30:24.698Z,100810.59
2022-10-21T10:32:52.648Z,100797.78
2022-10-21T10:35:33.251Z,100793.31
2022-10-21T10:38:02.170Z,100806.22
2022-10-21T10:40:41.885Z,100800.03
2022-10-21T10:43:20.499Z,100809.75
2022-10-21T10:45:50.077Z,100802.81
2022-10-21T10:48:22.934Z,100801.59
2022-10-21T10:50:50.481Z,100795.78
2022-10-21T10:53:34.557Z,100801.72
2022-10-21T10:56:03.939Z,100797.09
2022-10-21T10:58:33.995Z,100796.47
2022-10-21T11:01:02.841Z,100788.28
2022-10-21T11:03:41.237Z,100787.41
2022-10-21T11:06:16.813Z,100775.34
2022-10-21T11:08:48.445Z,100783.59
2022-10-21T11:11:23.916Z,100785.81
2022-10-21T11:13:50.490Z,100778.88
2022-10-21T11:16:36.794Z,100784.81
2022-10-21T11:19:20.274Z,100788.31
2022-10-21T11:21:50.465Z,100787.09
2022-10-21T11:24:41.986Z,100787.09
2022-10-21T11:27:36.607Z,100789.53
2022-10-21T11:30:19.675Z,100777.81
2022-10-21T11:32:58.596Z,100779.25
2022-10-21T11:35:38.195Z,100778.44
2022-10-21T11:38:16.798Z,100782.34
2022-10-21T11:40:54.508Z,100790.34
2022-10-21T11:43:58.230Z,100786.88
2022-10-21T11:46:42.762Z,100781.53
2022-10-21T11:49:27.715Z,100788.31
2022-10-21T11:52:22.939Z,100783.81
2022-10-21T11:55:09.338Z,100776.41
2022-10-21T11:58:08.045Z,100769.44
2022-10-21T12:00:45.241Z,100763.88
2022-10-21T12:03:47.667Z,100766.53
2022-10-21T12:06:38.391Z,100763.88
2022-10-21T12:09:27.155Z,100767.59
2022-10-21T12:11:57.780Z,100768.78
2022-10-21T12:14:31.277Z,100759.78
2022-10-21T12:17:00.797Z,100755.06
2022-10-21T12:19:27.987Z,100760.78
2022-10-21T12:21:54.481Z,100753.19
2022-10-21T12:24:33.905Z,100742.31
2022-10-21T12:27:19.180Z,100743.34
2022-10-21T12:30:12.856Z,100741.72
2022-10-21T12:32:54.038Z,100744.38
2022-10-21T12:35:40.336Z,100748.06
2022-10-21T12:38:19.688Z,100740.69
2022-10-21T12:40:46.514Z,100748.06
2022-10-21T12:43:23.630Z,100739.84
2022-10-21T12:46:08.063Z,100738.66
2022-10-21T12:48:40.469Z,100744.38
2022-10-21T12:51:21.303Z,100740.88
2022-10-21T12:53:53.896Z,100737.38
2022-10-21T12:56:42.195Z,100732.03
2022-10-21T12:59:29.988Z,100734.28
2022-10-21T13:02:05.522Z,100730.38
2022-10-21T13:04:31.930Z,100737.97
2022-10-21T13:07:19.423Z,100740.06
2022-10-21T13:09:52.100Z,100733.22
2022-10-21T13:12:23.429Z,100735.25
2022-10-21T13:14:50.350Z,100727.25
2022-10-21T13:17:28.359Z,100739.97
2022-10-21T13:20:06.837Z,100738.13
2022-10-21T13:22:35.235Z,100734.88
2022-10-21T13:25:22.492Z,100733.84
2022-10-21T13:27:52.760Z,100739.72
2022-10-21T13:30:48.583Z,100744.06
2022-10-21T13:33:17.835Z,100743.19
2022-10-21T13:35:52.087Z,100746.94
2022-10-21T13:38:21.559Z,100743.25
2022-10-21T13:40:53.791Z,100740.19
2022-10-21T13:43:28.759Z,100744.25
2022-10-21T13:46:07.693Z,100749.78
2022-10-21T13:48:42.533Z,100751.25
2022-10-21T13:51:22.128Z,100752.66
2022-10-21T13:53:51.904Z,100748.53
2022-10-21T13:56:23.753Z,100754.94
2022-10-21T13:58:50.501Z,100757.19
2022-10-21T14:01:25.739Z,100754.69
2022-10-21T14:04:11.032Z,100748.78
2022-10-21T14:06:40.895Z,100752.25
2022-10-21T14:09:10.292Z,100757.00
2022-10-21T14:11:43.231Z,100758.03
2022-10-21T14:14:10.949Z,100752.28
2022-10-21T14:16:45.730Z,100753.06
2022-10-21T14:19:18.723Z,100752.06
2022-10-21T14:21:46.932Z,100746.94
2022-10-21T14:24:45.482Z,100748.81
2022-10-21T14:27:32.187Z,100754.56
2022-10-21T14:30:00.853Z,100749.00
2022-10-21T14:32:27.464Z,100751.25
2022-10-21T14:35:14.086Z,100747.13
2022-10-21T14:37:43.058Z,100745.06
2022-10-21T14:40:32.615Z,100746.94
2022-10-21T14:43:16.964Z,100737.69
2022-10-21T14:45:51.481Z,100742.59
2022-10-21T14:48:34.839Z,100739.97
2022-10-21T14:51:03.777Z,100735.63
2022-10-21T14:53:33.273Z,100735.41
2022-10-21T14:56:01.380Z,100731.53
2022-10-21T14:58:37.835Z,100727.78
2022-10-21T15:01:14.366Z,100727.22
2022-10-21T15:03:44.688Z,100726.97
2022-10-21T15:06:28.751Z,100716.72
2022-10-21T15:09:04.872Z,100718.34
2022-10-21T15:11:40.536Z,100721.91
2022-10-21T15:14:26.411Z,100719.84
2022-10-21T15:16:55.342Z,100720.06
2022-10-21T15:19:25.936Z,100723.94
2022-10-21T15:21:56.850Z,100720.91
2022-10-21T15:24:25.531Z,100728.69
2022-10-21T15:26:53.286Z,100725.00
2022-10-21T15:29:29.297Z,100728.13
2022-10-21T15:31:56.835Z,100735.69
2022-10-21T15:34:23.353Z,100735.53
2022-10-21T15:36:50.178Z,100733.66
2022-10-21T15:39:16.708Z,100748.06
2022-10-21T15:41:43.418Z,100742.28
2022-10-21T15:44:19.146Z,100747.44
2022-10-21T15:46:47.041Z,100743.34
2022-10-21T15:49:19.774Z,100747.00
2022-10-21T15:51:46.735Z,100738.38
2022-10-21T15:54:13.855Z,100742.47
2022-10-21T15:56:40.310Z,100747.38
2022-10-21T15:59:08.669Z,100751.94
2022-10-21T16:01:35.217Z,100751.72
2022-10-21T16:04:02.976Z,100752.97
2022-10-21T16:06:29.505Z,100755.44
2022-10-21T16:08:56.089Z,100755.84
2022-10-21T16:11:34.653Z,100758.94
2022-10-21T16:14:09.957Z,100757.06
2022-10-21T16:16:37.282Z,100741.22
2022-10-21T16:19:03.843Z,100739.81
2022-10-21T16:21:30.309Z,100738.19
2022-10-21T16:23:58.334Z,100749.50
2022-10-21T16:26:26.823Z,100750.72
2022-10-21T16:28:55.031Z,100744.97
2022-10-21T16:31:21.638Z,100758.94
2022-10-21T16:33:48.274Z,100754.63
2022-10-21T16:36:17.225Z,100750.50
2022-10-21T16:38:45.411Z,100758.31
2022-10-21T16:41:18.133Z,100755.44
2022-10-21T16:43:44.930Z,100755.44
2022-10-21T16:46:35.684Z,100762.84
2022-10-21T16:49:06.911Z,100759.56
2022-10-21T16:51:38.203Z,100756.28
2022-10-21T16:54:05.269Z,100748.47
2022-10-21T16:56:31.740Z,100753.63
2022-10-21T16:58:58.215Z,100756.28
2022-10-21T17:01:24.889Z,100752.19
2022-10-21T17:03:51.872Z,100759.19
2022-10-21T17:06:21.127Z,100764.09
2022-10-21T17:08:51.633Z,100765.31
2022-10-21T17:11:25.389Z,100768.22
2022-10-21T17:13:51.896Z,100772.31
2022-10-21T17:16:20.075Z,100771.47
2022-10-21T17:18:47.552Z,100767.97
2022-10-21T17:21:20.713Z,100772.31
2022-10-21T17:23:48.735Z,100775.59
2022-10-21T17:26:15.307Z,100786.06
2022-10-21T17:28:41.796Z,100782.75
2022-10-21T17:31:15.175Z,100782.16
2022-10-21T17:33:42.292Z,100780.91
2022-10-21T17:36:08.762Z,100778.25
2022-10-21T17:38:35.374Z,100765.72
2022-10-21T17:41:01.829Z,100780.94
2022-10-21T17:43:28.343Z,100782.78
2022-10-21T17:45:54.801Z,100781.31
2022-10-21T17:48:21.267Z,100779.69
2022-10-21T17:50:53.960Z,100784.59
2022-10-21T17:53:20.539Z,100782.94
2022-10-21T17:55:58.373Z,100784.81
2022-10-21T17:58:25.082Z,100781.31
2022-10-21T18:00:51.695Z,100781.13
2022-10-21T18:03:18.389Z,100783.53
2022-10-21T18:05:46.340Z,100782.91
2022-10-21T18:08:12.803Z,100784.16
2022-10-21T18:10:39.292Z,100787.00
2022-10-21T18:13:05.759Z,100778.81
2022-10-21T18:15:32.283Z,100779.66
2022-10-21T18:17:58.968Z,100787.06
2022-10-21T18:20:25.506Z,100780.50
2022-10-21T18:22:52.301Z,100784.59
2022-10-21T18:25:18.746Z,100784.16
2022-10-21T18:27:45.226Z,100791.13
2022-10-21T18:30:11.837Z,100791.34
2022-10-21T18:32:39.111Z,100792.16
2022-10-21T18:35:06.169Z,100793.34
2022-10-21T18:37:33.938Z,100786.56
2022-10-21T18:40:00.382Z,100790.31
2022-10-21T18:42:26.847Z,100788.22
2022-10-21T18:44:53.324Z,100788.22
2022-10-21T18:47:19.782Z,100798.69
2022-10-21T18:49:46.239Z,100794.16
2022-10-21T18:52:13.458Z,100795.56
2022-10-21T18:54:39.919Z,100802.75
2022-10-21T18:57:09.776Z,100803.75
2022-10-21T18:59:36.384Z,100800.03
2022-10-21T19:02:03.884Z,100802.47
2022-10-21T19:04:30.557Z,100805.72
2022-10-21T19:06:57.007Z,100803.28
2022-10-21T19:09:25.793Z,100803.69
2022-10-21T19:11:53.165Z,100807.16
2022-10-21T19:14:20.180Z,100812.09
2022-10-21T19:16:47.844Z,100810.44
2022-10-21T19:19:15.743Z,100816.78
2022-10-21T19:21:42.240Z,100824.59
2022-10-21T19:24:09.230Z,100823.41
2022-10-21T19:26:37.930Z,100821.97
2022-10-21T19:29:07.143Z,100822.81
2022-10-21T19:31:36.084Z,100825.63
2022-10-21T19:34:06.076Z,100833.63
2022-10-21T19:36:32.578Z,100833.00
2022-10-21T19:38:59.078Z,100824.38
2022-10-21T19:41:25.546Z,100836.28
2022-10-21T19:43:56.281Z,100842.88
2022-10-21T19:46:25.516Z,100846.78
2022-10-21T19:48:52.730Z,100846.38
2022-10-21T19:51:21.483Z,100856.19
2022-10-21T19:53:48.645Z,100854.94
2022-10-21T19:56:16.078Z,100857.47
2022-10-21T19:58:48.416Z,100849.28
2022-10-21T20:01:17.577Z,100858.91
2022-10-21T20:03:45.632Z,100869.63
2022-10-21T20:06:18.362Z,100875.59
2022-10-21T20:08:44.862Z,100874.44
2022-10-21T20:11:28.588Z,100871.13
2022-10-21T20:13:55.393Z,100876.06
2022-10-21T20:16:33.486Z,100881.81
2022-10-21T20:19:00.977Z,100882.47
2022-10-21T20:21:27.731Z,100884.09
2022-10-21T20:23:54.831Z,100885.13
2022-10-21T20:26:22.567Z,100889.44
2022-10-21T20:28:50.768Z,100894.56
2022-10-21T20:31:17.842Z,100888.41
2022-10-21T20:33:49.558Z,100891.50
2022-10-21T20:36:23.808Z,100895.78
2022-10-21T20:38:51.632Z,100900.56
2022-10-21T20:41:23.092Z,100896.63
2022-10-21T20:43:54.015Z,100899.13
2022-10-21T20:46:22.345Z,100901.59
2022-10-21T20:48:50.287Z,100902.63
2022-10-21T20:51:19.275Z,100904.47
2022-10-21T20:53:57.007Z,100904.47
2022-10-21T20:56:26.596Z,100901.59
2022-10-21T20:58:53.246Z,100903.66
2022-10-21T21:01:22.325Z,100896.06
2022-10-21T21:03:49.390Z,100898.28
2022-10-21T21:06:15.927Z,100899.94
2022-10-21T21:08:48.997Z,100904.69
2022-10-21T21:11:20.416Z,100907.59
2022-10-21T21:13:47.031Z,100900.78
2022-10-21T21:16:21.598Z,100910.66
2022-10-21T21:18:54.129Z,100897.53
2022-10-21T21:21:21.912Z,100891.59
2022-10-21T21:23:48.718Z,100899.19
2022-10-21T21:26:21.051Z,100893.00
2022-10-21T21:28:47.867Z,100895.94
2022-10-21T21:31:15.006Z,100894.25
2022-10-21T21:33:42.435Z,100890.97
2022-10-21T21:36:09.289Z,100897.34
2022-10-21T21:38:35.813Z,100896.31
2022-10-21T21:41:04.519Z,100893.47
2022-10-21T21:43:33.775Z,100890.97
2022-10-21T21:46:01.561Z,100895.28
2022-10-21T21:48:28.347Z,100894.28
2022-10-21T21:51:06.424Z,100892.63
2022-10-21T21:53:33.175Z,100893.06
2022-10-21T21:56:03.811Z,100897.13
2022-10-21T21:58:30.515Z,100888.94
2022-10-21T22:00:57.002Z,100881.97
2022-10-21T22:03:23.731Z,100886.44
2022-10-21T22:05:50.238Z,100882.97
2022-10-21T22:08:16.804Z,100884.63
2022-10-21T22:10:43.319Z,100879.91
2022-10-21T22:13:09.959Z,100879.47
2022-10-21T22:15:47.729Z,100879.69
2022-10-21T22:18:15.067Z,100877.00
2022-10-21T22:20:41.623Z,100879.06
2022-10-21T22:23:08.119Z,100877.03
2022-10-21T22:25:35.039Z,100876.38
2022-10-21T22:28:01.644Z,100883.59
2022-10-21T22:30:28.130Z,100882.16
2022-10-21T22:32:54.624Z,100872.09
2022-10-21T22:35:21.099Z,100868.38
2022-10-21T22:37:47.571Z,100869.22
2022-10-21T22:40:14.049Z,100866.34
2022-10-21T22:42:40.574Z,100869.22
2022-10-21T22:45:07.845Z,100862.03
2022-10-21T22:47:34.803Z,100868.41
2022-10-21T22:50:01.274Z,100866.53
2022-10-21T22:52:27.719Z,100869.03
2022-10-21T22:54:54.258Z,100872.94
2022-10-21T22:57:20.718Z,100872.09
2022-10-21T22:59:52.053Z,100867.75
2022-10-21T23:02:19.828Z,100869.41
2022-10-21T23:04:46.311Z,100866.56
2022-10-21T23:07:13.040Z,100866.97
2022-10-21T23:09:39.581Z,100865.31
2022-10-21T23:12:06.117Z,100864.88
2022-10-21T23:14:32.725Z,100869.81
2022-10-21T23:16:59.229Z,100870.88
2022-10-21T23:19:25.710Z,100871.25
2022-10-21T23:21:52.198Z,100867.56
2022-10-21T23:24:18.714Z,100856.47
2022-10-21T23:26:45.187Z,100861.19
2022-10-21T23:29:11.757Z,100869.22
2022-10-21T23:31:38.266Z,100865.31
2022-10-21T23:34:05.952Z,100871.47
2022-10-21T23:36:33.473Z,100873.50
2022-10-21T23:39:00.062Z,100875.34
2022-10-21T23:41:26.564Z,100878.84
2022-10-21T23:43:53.195Z,100875.38
2022-10-21T23:46:20.331Z,100885.03
2022-10-21T23:48:46.831Z,100879.88
2022-10-21T23:51:13.598Z,100876.38
2022-10-21T23:53:40.150Z,100876.63
2022-10-21T23:56:07.108Z,100878.44
2022-10-21T23:58:33.671Z,100883.41
